createdAt,value
2022-10-28T00:00:53.988Z,10.82
2022-10-28T00:03:21.538Z,8.93
2022-10-28T00:05:49.096Z,5.25
2022-10-28T00:08:16.614Z,9.25
2022-10-28T00:10:44.163Z,7.22
2022-10-28T00:13:11.710Z,7.55
2022-10-28T00:15:39.258Z,8.00
2022-10-28T00:18:06.831Z,6.55
2022-10-28T00:20:34.346Z,7.35
2022-10-28T00:23:01.924Z,12.95
2022-10-28T00:25:29.447Z,11.65
2022-10-28T00:27:57.010Z,6.88
2022-10-28T00:30:24.579Z,6.85
2022-10-28T00:32:53.312Z,5.93
2022-10-28T00:35:21.147Z,10.15
2022-10-28T00:37:48.678Z,8.95
2022-10-28T00:40:16.267Z,7.70
2022-10-28T00:42:43.843Z,7.75
2022-10-28T00:45:11.511Z,6.97
2022-10-28T00:47:42.508Z,7.97
2022-10-28T00:50:18.062Z,9.23
2022-10-28T00:52:47.126Z,11.63
2022-10-28T00:55:16.930Z,4.60
2022-10-28T00:57:45.585Z,5.97
2022-10-28T01:00:13.377Z,6.72
2022-10-28T01:02:48.685Z,7.45
2022-10-28T01:05:18.000Z,5.15
2022-10-28T01:07:45.675Z,8.20
2022-10-28T01:10:14.375Z,5.68
2022-10-28T01:12:55.072Z,6.18
2022-10-28T01:15:29.523Z,5.22
2022-10-28T01:18:09.230Z,8.07
2022-10-28T01:20:39.774Z,4.60
2022-10-28T01:23:12.350Z,7.88
2022-10-28T01:25:59.029Z,5.07
2022-10-28T01:28:51.980Z,9.18
2022-10-28T01:31:22.494Z,9.65
2022-10-28T01:33:50.006Z,8.25
2022-10-28T01:36:20.570Z,4.57
2022-10-28T01:38:51.955Z,5.85
2022-10-28T01:41:26.775Z,7.88
2022-10-28T01:43:54.266Z,5.50
2022-10-28T01:46:40.230Z,6.85
2022-10-28T01:49:19.980Z,6.30
2022-10-28T01:51:48.989Z,7.10
2022-10-28T01:54:18.231Z,7.13
2022-10-28T01:56:46.133Z,5.88
2022-10-28T01:59:15.265Z,5.47
2022-10-28T02:01:43.075Z,4.45
2022-10-28T02:04:10.795Z,3.78
2022-10-28T02:06:39.539Z,5.82
2022-10-28T02:09:07.090Z,5.43
2022-10-28T02:11:40.475Z,5.68
2022-10-28T02:14:13.347Z,5.70
2022-10-28T02:16:47.591Z,5.13
2022-10-28T02:19:18.083Z,5.47
2022-10-28T02:21:56.554Z,5.60
2022-10-28T02:24:29.593Z,7.68
2022-10-28T02:27:01.646Z,9.32
2022-10-28T02:29:35.992Z,4.70
2022-10-28T02:32:06.391Z,5.72
2022-10-28T02:34:40.215Z,7.38
2022-10-28T02:37:11.816Z,5.15
2022-10-28T02:39:41.648Z,7.25
2022-10-28T02:42:21.075Z,7.53
2022-10-28T02:44:50.450Z,4.40
2022-10-28T02:47:20.244Z,7.13
2022-10-28T02:49:51.224Z,5.53
2022-10-28T02:52:20.603Z,3.73
2022-10-28T02:54:50.760Z,5.82
2022-10-28T02:57:20.338Z,5.85
2022-10-28T02:59:57.939Z,5.90
2022-10-28T03:02:26.143Z,4.55
2022-10-28T03:04:53.905Z,6.47
2022-10-28T03:07:21.857Z,7.38
2022-10-28T03:09:49.442Z,8.77
2022-10-28T03:12:17.011Z,5.13
2022-10-28T03:14:44.609Z,7.40
2022-10-28T03:17:12.210Z,6.50
2022-10-28T03:19:39.796Z,9.52
2022-10-28T03:22:07.341Z,6.28
2022-10-28T03:24:34.898Z,5.65
2022-10-28T03:27:02.481Z,6.22
2022-10-28T03:29:30.045Z,5.55
2022-10-28T03:31:57.584Z,4.85
2022-10-28T03:34:25.110Z,5.00
2022-10-28T03:36:52.627Z,4.65
2022-10-28T03:39:20.231Z,5.05
2022-10-28T03:41:47.792Z,6.60
2022-10-28T03:44:15.363Z,6.63
2022-10-28T03:46:42.919Z,6.30
2022-10-28T03:49:10.483Z,7.15
2022-10-28T03:51:38.002Z,4.82
2022-10-28T03:54:05.522Z,4.82
2022-10-28T03:56:33.030Z,5.13
2022-10-28T03:59:00.594Z,6.63
2022-10-28T04:01:28.190Z,8.00
2022-10-28T04:03:55.790Z,3.53
2022-10-28T04:06:23.402Z,4.55
2022-10-28T04:08:50.974Z,5.05
2022-10-28T04:11:18.531Z,4.25
2022-10-28T04:13:46.098Z,4.28
2022-10-28T04:16:15.624Z,5.45
2022-10-28T04:18:43.193Z,5.47
2022-10-28T04:21:10.729Z,5.63
2022-10-28T04:23:38.268Z,6.88
2022-10-28T04:26:07.013Z,4.82
2022-10-28T04:28:34.577Z,4.78
2022-10-28T04:31:02.727Z,4.68
2022-10-28T04:33:30.322Z,4.85
2022-10-28T04:35:57.846Z,6.50
2022-10-28T04:40:57.840Z,6.40
2022-10-28T04:43:25.338Z,5.95
2022-10-28T04:45:53.075Z,7.95
2022-10-28T04:48:20.983Z,7.50
2022-10-28T04:50:48.582Z,6.75
2022-10-28T04:53:16.107Z,7.85
2022-10-28T04:55:43.660Z,6.57
2022-10-28T04:58:11.182Z,11.48
2022-10-28T05:00:38.715Z,18.85
2022-10-28T05:03:06.292Z,6.82
2022-10-28T05:05:34.176Z,8.38
2022-10-28T05:08:02.425Z,8.05
2022-10-28T05:10:30.631Z,12.13
2022-10-28T05:12:58.258Z,9.27
2022-10-28T05:15:26.580Z,7.72
2022-10-28T05:17:54.886Z,9.48
2022-10-28T05:20:22.729Z,11.25
2022-10-28T05:22:52.452Z,7.75
2022-10-28T05:25:20.379Z,14.88
2022-10-28T05:27:48.660Z,21.83
2022-10-28T05:30:16.449Z,8.70
2022-10-28T05:32:44.364Z,8.32
2022-10-28T05:35:12.562Z,8.43
2022-10-28T05:37:40.127Z,8.15
2022-10-28T05:40:08.152Z,4.93
2022-10-28T05:42:40.980Z,7.03
2022-10-28T05:45:09.096Z,7.88
2022-10-28T05:47:39.273Z,7.55
2022-10-28T05:50:07.907Z,6.18
2022-10-28T05:52:36.570Z,8.68
2022-10-28T05:55:04.341Z,6.55
2022-10-28T05:57:35.015Z,9.73
2022-10-28T06:00:02.931Z,6.88
2022-10-28T06:02:40.067Z,6.68
2022-10-28T06:05:08.256Z,9.95
2022-10-28T06:07:36.520Z,7.55
2022-10-28T06:10:05.427Z,10.40
2022-10-28T06:12:31.555Z,6.07
2022-10-28T06:14:59.515Z,9.35
2022-10-28T06:17:27.069Z,4.32
2022-10-28T06:19:54.661Z,6.20
2022-10-28T06:22:23.630Z,10.07
2022-10-28T06:24:51.470Z,6.32
2022-10-28T06:27:19.070Z,10.27
2022-10-28T06:29:46.871Z,6.38
2022-10-28T06:32:14.504Z,9.45
2022-10-28T06:34:42.090Z,13.25
2022-10-28T06:37:09.827Z,7.55
2022-10-28T06:39:38.374Z,10.23
2022-10-28T06:42:06.284Z,9.80
2022-10-28T06:44:33.818Z,11.93
2022-10-28T06:47:02.939Z,10.85
2022-10-28T06:49:30.505Z,5.57
2022-10-28T06:51:58.118Z,8.88
2022-10-28T06:54:26.036Z,9.55
2022-10-28T06:56:53.556Z,8.82
2022-10-28T06:59:21.209Z,8.40
2022-10-28T07:01:49.018Z,9.10
2022-10-28T07:04:16.788Z,7.75
2022-10-28T07:06:46.348Z,12.23
2022-10-28T07:09:16.212Z,8.13
2022-10-28T07:11:44.787Z,7.75
2022-10-28T07:14:12.344Z,8.65
2022-10-28T07:16:39.881Z,11.25
2022-10-28T07:19:07.470Z,9.10
2022-10-28T07:21:35.145Z,12.32
2022-10-28T07:24:02.974Z,12.32
2022-10-28T07:26:30.531Z,9.18
2022-10-28T07:28:58.059Z,10.32
2022-10-28T07:31:27.627Z,12.40
2022-10-28T07:33:55.670Z,11.65
2022-10-28T07:36:23.202Z,8.73
2022-10-28T07:38:51.724Z,8.63
2022-10-28T07:41:20.422Z,14.23
2022-10-28T07:43:48.078Z,9.90
2022-10-28T07:46:15.651Z,11.52
2022-10-28T07:48:43.284Z,10.07
2022-10-28T07:51:12.193Z,12.57
2022-10-28T07:53:40.225Z,13.65
2022-10-28T07:56:09.698Z,20.00
2022-10-28T07:58:37.806Z,15.30
2022-10-28T08:01:07.185Z,12.13
2022-10-28T08:03:39.078Z,10.65
2022-10-28T08:06:17.266Z,16.33
2022-10-28T08:08:45.959Z,8.77
2022-10-28T08:11:18.933Z,12.52
2022-10-28T08:13:47.100Z,12.63
2022-10-28T08:16:14.767Z,9.43
2022-10-28T08:18:42.586Z,19.52
2022-10-28T08:21:10.885Z,15.68
2022-10-28T08:23:38.689Z,14.43
2022-10-28T08:26:06.577Z,7.50
2022-10-28T08:28:34.330Z,9.60
2022-10-28T08:31:10.295Z,13.38
2022-10-28T08:33:39.022Z,15.77
2022-10-28T08:36:07.348Z,16.88
2022-10-28T08:38:34.924Z,14.43
2022-10-28T08:41:17.838Z,16.55
2022-10-28T08:43:57.682Z,15.13
2022-10-28T08:46:37.569Z,12.07
2022-10-28T08:49:10.669Z,10.48
2022-10-28T08:51:48.178Z,16.33
2022-10-28T08:54:17.831Z,16.02
2022-10-28T08:56:47.490Z,11.50
2022-10-28T08:59:19.736Z,13.90
2022-10-28T09:04:35.767Z,9.93
2022-10-28T09:07:04.101Z,12.32
2022-10-28T09:09:32.249Z,13.00
2022-10-28T09:12:18.746Z,8.65
2022-10-28T09:15:01.794Z,8.85
2022-10-28T09:17:52.500Z,8.95
2022-10-28T09:20:39.297Z,14.25
2022-10-28T09:23:29.194Z,11.48
2022-10-28T09:26:20.833Z,9.55
2022-10-28T09:28:56.263Z,4.35
2022-10-28T09:31:41.454Z,6.45
2022-10-28T09:34:29.802Z,6.75
2022-10-28T09:37:17.633Z,9.93
2022-10-28T09:39:47.648Z,4.90
2022-10-28T09:42:18.826Z,6.90
2022-10-28T09:44:56.009Z,7.70
2022-10-28T09:47:25.938Z,7.75
2022-10-28T09:49:56.441Z,7.07
2022-10-28T09:52:25.833Z,3.38
2022-10-28T09:54:54.128Z,4.07
2022-10-28T09:57:22.877Z,7.65
2022-10-28T09:59:50.436Z,5.18
2022-10-28T10:02:28.935Z,8.48
2022-10-28T10:04:57.667Z,5.07
2022-10-28T10:07:34.130Z,4.13
2022-10-28T10:12:37.442Z,5.82
2022-10-28T10:15:06.621Z,4.57
2022-10-28T10:17:40.008Z,7.65
2022-10-28T10:20:12.146Z,5.68
2022-10-28T10:22:40.689Z,4.28
2022-10-28T10:25:20.123Z,8.32
2022-10-28T10:27:56.018Z,6.25
2022-10-28T10:30:26.365Z,4.63
2022-10-28T10:32:54.083Z,12.25
2022-10-28T10:35:21.792Z,3.35
2022-10-28T10:37:49.486Z,5.70
2022-10-28T10:40:17.674Z,6.15
2022-10-28T10:42:57.390Z,3.15
2022-10-28T10:45:33.894Z,4.68
2022-10-28T10:48:12.164Z,2.95
2022-10-28T10:50:39.937Z,5.35
2022-10-28T10:53:08.385Z,4.43
2022-10-28T10:55:49.711Z,2.15
2022-10-28T10:58:19.254Z,2.67
2022-10-28T11:00:52.397Z,5.85
2022-10-28T11:03:23.488Z,6.03
2022-10-28T11:06:05.327Z,2.97
2022-10-28T11:08:42.125Z,4.97
2022-10-28T11:11:13.936Z,4.85
2022-10-28T11:13:45.201Z,3.05
2022-10-28T11:16:19.341Z,3.25
2022-10-28T11:18:48.308Z,6.32
2022-10-28T11:21:42.841Z,3.67
2022-10-28T11:24:13.185Z,5.70
2022-10-28T11:26:45.454Z,5.53
2022-10-28T11:29:16.610Z,6.45
2022-10-28T11:31:47.573Z,4.30
2022-10-28T11:34:18.287Z,7.93
2022-10-28T11:36:59.173Z,3.70
2022-10-28T11:39:40.702Z,4.80
2022-10-28T11:42:08.226Z,4.90
2022-10-28T11:44:41.758Z,2.67
2022-10-28T11:47:12.228Z,4.78
2022-10-28T11:49:59.057Z,5.63
2022-10-28T11:52:26.673Z,8.00
2022-10-28T11:55:12.839Z,7.15
2022-10-28T11:57:46.955Z,3.90
2022-10-28T12:00:14.648Z,2.75
2022-10-28T12:02:42.408Z,6.93
2022-10-28T12:05:16.073Z,6.15
2022-10-28T12:07:52.456Z,7.38
2022-10-28T12:10:34.327Z,9.25
2022-10-28T12:13:12.658Z,5.57
2022-10-28T12:15:40.138Z,3.97
2022-10-28T12:18:29.068Z,6.22
2022-10-28T12:21:05.860Z,6.55
2022-10-28T12:23:35.023Z,8.63
2022-10-28T12:26:05.330Z,5.05
2022-10-28T12:28:34.739Z,5.15
2022-10-28T12:31:02.893Z,3.75
2022-10-28T12:33:34.341Z,4.47
2022-10-28T12:36:04.678Z,6.13
2022-10-28T12:38:41.200Z,4.78
2022-10-28T12:41:13.922Z,4.55
2022-10-28T12:43:41.461Z,4.18
2022-10-28T12:46:14.795Z,5.90
2022-10-28T12:48:45.765Z,2.58
2022-10-28T12:51:17.213Z,5.30
2022-10-28T12:53:55.046Z,3.75
2022-10-28T12:56:25.185Z,6.20
2022-10-28T12:59:01.733Z,4.68
2022-10-28T13:01:31.603Z,4.38
2022-10-28T13:03:59.361Z,8.13
2022-10-28T13:09:23.154Z,3.63
2022-10-28T13:11:59.844Z,7.32
2022-10-28T13:14:30.122Z,2.40
2022-10-28T13:17:18.318Z,4.05
2022-10-28T13:19:51.816Z,9.13
2022-10-28T13:25:05.967Z,8.32
2022-10-28T13:27:33.643Z,7.30
2022-10-28T13:30:03.398Z,7.63
2022-10-28T13:32:37.362Z,5.22
2022-10-28T13:35:12.645Z,5.72
2022-10-28T13:37:40.536Z,7.15
2022-10-28T13:40:21.113Z,6.72
2022-10-28T13:42:49.561Z,4.38
2022-10-28T13:45:37.086Z,2.58
2022-10-28T13:48:23.592Z,3.85
2022-10-28T13:50:51.141Z,7.70
2022-10-28T13:53:24.647Z,9.30
2022-10-28T13:55:57.026Z,3.60
2022-10-28T13:58:26.016Z,2.80
2022-10-28T14:00:54.784Z,4.65
2022-10-28T14:03:25.020Z,7.63
2022-10-28T14:05:58.188Z,4.55
2022-10-28T14:08:35.374Z,5.45
2022-10-28T14:11:08.616Z,4.20
2022-10-28T14:13:49.720Z,4.35
2022-10-28T14:16:24.069Z,4.28
2022-10-28T14:19:04.042Z,4.72
2022-10-28T14:21:44.357Z,6.47
2022-10-28T14:24:31.396Z,4.20
2022-10-28T14:27:04.790Z,5.38
2022-10-28T14:29:32.857Z,3.45
2022-10-28T14:32:20.535Z,5.40
2022-10-28T14:34:48.758Z,4.38
2022-10-28T14:37:27.430Z,3.22
2022-10-28T14:40:06.768Z,4.03
2022-10-28T14:42:34.271Z,4.95
2022-10-28T14:45:07.834Z,9.57
2022-10-28T14:47:57.808Z,8.75
2022-10-28T14:50:38.689Z,7.97
2022-10-28T14:53:08.469Z,8.38
2022-10-28T14:55:36.028Z,3.78
2022-10-28T14:58:18.924Z,3.92
2022-10-28T15:00:58.520Z,9.73
2022-10-28T15:03:26.222Z,7.78
2022-10-28T15:05:53.848Z,10.00
2022-10-28T15:08:21.472Z,7.97
2022-10-28T15:10:50.477Z,6.47
2022-10-28T15:13:20.179Z,12.23
2022-10-28T15:15:54.392Z,4.38
2022-10-28T15:18:23.658Z,8.70
2022-10-28T15:21:07.452Z,6.78
2022-10-28T15:23:35.383Z,7.03
2022-10-28T15:26:13.054Z,5.68
2022-10-28T15:28:41.077Z,17.40
2022-10-28T15:31:08.863Z,21.92
2022-10-28T15:33:40.774Z,10.73
2022-10-28T15:36:16.676Z,6.85
2022-10-28T15:38:46.714Z,9.20
2022-10-28T15:41:23.833Z,5.65
2022-10-28T15:43:55.856Z,14.30
2022-10-28T15:46:24.197Z,12.00
2022-10-28T15:48:58.453Z,13.57
2022-10-28T15:51:26.700Z,7.70
2022-10-28T15:53:55.199Z,8.73
2022-10-28T15:56:26.797Z,10.60
2022-10-28T15:59:00.232Z,13.68
2022-10-28T16:01:39.994Z,9.00
2022-10-28T16:04:30.624Z,19.40
2022-10-28T16:06:58.852Z,18.60
2022-10-28T16:09:32.340Z,25.98
2022-10-28T16:12:02.663Z,11.98
2022-10-28T16:14:36.898Z,11.40
2022-10-28T16:17:11.441Z,9.23
2022-10-28T16:19:40.894Z,12.43
2022-10-28T16:22:11.697Z,13.38
2022-10-28T16:24:39.266Z,20.30
2022-10-28T16:27:15.762Z,14.40
2022-10-28T16:29:43.332Z,9.52
2022-10-28T16:32:14.774Z,12.60
2022-10-28T16:34:42.589Z,14.95
2022-10-28T16:37:21.980Z,12.98
2022-10-28T16:39:49.694Z,9.38
2022-10-28T16:42:17.827Z,9.65
2022-10-28T16:44:47.686Z,11.13
2022-10-28T16:47:19.895Z,12.00
2022-10-28T16:49:54.290Z,16.00
2022-10-28T16:52:28.288Z,14.57
2022-10-28T16:54:56.126Z,9.15
2022-10-28T16:59:56.854Z,13.10
2022-10-28T17:02:27.470Z,10.05
2022-10-28T17:04:55.307Z,15.95
2022-10-28T17:07:23.406Z,23.15
2022-10-28T17:09:52.047Z,22.73
2022-10-28T17:12:21.784Z,12.48
2022-10-28T17:14:49.656Z,13.18
2022-10-28T17:17:17.606Z,7.65
2022-10-28T17:19:46.449Z,8.70
2022-10-28T17:22:14.759Z,8.60
2022-10-28T17:24:42.529Z,11.43
2022-10-28T17:27:10.579Z,20.13
2022-10-28T17:29:38.845Z,10.18
2022-10-28T17:32:08.675Z,8.52
2022-10-28T17:34:36.806Z,8.40
2022-10-28T17:37:04.554Z,12.50
2022-10-28T17:39:32.253Z,7.93
2022-10-28T17:41:59.899Z,7.78
2022-10-28T17:44:27.497Z,7.78
2022-10-28T17:46:58.070Z,11.43
2022-10-28T17:49:26.295Z,12.73
2022-10-28T17:51:53.958Z,11.20
2022-10-28T17:54:21.553Z,11.85
2022-10-28T17:56:49.229Z,14.70
2022-10-28T17:59:18.847Z,12.07
2022-10-28T18:01:46.517Z,15.77
2022-10-28T18:04:14.438Z,18.13
2022-10-28T18:06:42.006Z,15.55
2022-10-28T18:09:12.877Z,15.50
2022-10-28T18:11:40.861Z,12.35
2022-10-28T18:14:08.648Z,12.60
2022-10-28T18:16:37.114Z,10.27
2022-10-28T18:19:08.335Z,6.75
2022-10-28T18:21:36.085Z,11.38
2022-10-28T18:24:04.277Z,8.88
2022-10-28T18:26:32.900Z,9.43
2022-10-28T18:29:03.868Z,10.95
2022-10-28T18:31:34.793Z,11.43
2022-10-28T18:34:02.987Z,10.77
2022-10-28T18:36:34.424Z,7.30
2022-10-28T18:39:06.957Z,15.13
2022-10-28T18:41:37.935Z,7.95
2022-10-28T18:44:06.315Z,12.07
2022-10-28T18:46:35.730Z,15.60
2022-10-28T18:49:04.266Z,12.82
2022-10-28T18:51:32.125Z,8.40
2022-10-28T18:53:59.759Z,10.95
2022-10-28T18:56:31.245Z,13.55
2022-10-28T18:59:02.385Z,12.45
2022-10-28T19:01:31.645Z,12.27
2022-10-28T19:04:00.602Z,10.88
2022-10-28T19:06:32.747Z,11.90
2022-10-28T19:09:02.106Z,10.52
2022-10-28T19:11:31.145Z,16.80
2022-10-28T19:13:59.611Z,11.95
2022-10-28T19:16:27.526Z,10.93
2022-10-28T19:18:58.749Z,12.65
2022-10-28T19:21:26.760Z,11.40
2022-10-28T19:23:54.712Z,15.90
2022-10-28T19:26:22.922Z,10.25
2022-10-28T19:28:51.422Z,13.30
2022-10-28T19:31:23.280Z,10.77
2022-10-28T19:36:19.558Z,13.18
2022-10-28T19:38:48.335Z,9.18
2022-10-28T19:41:16.998Z,14.50
2022-10-28T19:43:44.776Z,8.73
2022-10-28T19:46:13.619Z,10.85
2022-10-28T19:48:42.043Z,9.70
2022-10-28T19:51:11.382Z,11.95
2022-10-28T19:53:38.935Z,11.63
2022-10-28T19:56:06.672Z,9.40
2022-10-28T19:58:34.899Z,11.05
2022-10-28T20:01:08.936Z,11.73
2022-10-28T20:03:39.156Z,11.75
2022-10-28T20:06:09.043Z,15.75
2022-10-28T20:08:37.685Z,15.15
2022-10-28T20:11:07.070Z,12.85
2022-10-28T20:13:35.347Z,14.40
2022-10-28T20:16:04.482Z,11.60
2022-10-28T20:18:32.970Z,15.55
2022-10-28T20:21:04.375Z,11.70
2022-10-28T20:23:32.321Z,12.50
2022-10-28T20:26:00.360Z,15.23
2022-10-28T20:28:27.962Z,12.55
2022-10-28T20:30:56.637Z,11.18
2022-10-28T20:33:25.484Z,13.23
2022-10-28T20:35:53.615Z,13.30
2022-10-28T20:38:21.706Z,11.85
2022-10-28T20:40:50.192Z,12.55
2022-10-28T20:43:20.163Z,11.55
2022-10-28T20:45:59.283Z,12.90
2022-10-28T20:48:30.838Z,14.88
2022-10-28T20:50:59.571Z,11.75
2022-10-28T20:53:28.116Z,12.27
2022-10-28T20:55:56.962Z,14.68
2022-10-28T20:58:28.119Z,12.85
2022-10-28T21:00:55.727Z,10.05
2022-10-28T21:03:23.342Z,13.27
2022-10-28T21:05:50.883Z,12.45
2022-10-28T21:08:18.416Z,14.07
2022-10-28T21:10:45.976Z,12.93
2022-10-28T21:13:13.511Z,14.80
2022-10-28T21:15:41.601Z,11.35
2022-10-28T21:18:09.177Z,12.45
2022-10-28T21:20:36.829Z,15.23
2022-10-28T21:23:04.663Z,15.52
2022-10-28T21:25:32.409Z,12.30
2022-10-28T21:28:00.654Z,11.65
2022-10-28T21:30:28.273Z,11.80
2022-10-28T21:32:55.962Z,11.27
2022-10-28T21:35:23.997Z,11.75
2022-10-28T21:37:51.591Z,13.00
2022-10-28T21:40:19.141Z,13.10
2022-10-28T21:42:50.175Z,11.52
2022-10-28T21:45:17.913Z,13.17
2022-10-28T21:47:46.637Z,9.77
2022-10-28T21:50:14.819Z,12.48
2022-10-28T21:52:42.399Z,11.68
2022-10-28T21:55:20.276Z,10.43
2022-10-28T21:57:54.977Z,12.43
2022-10-28T22:00:22.793Z,10.95
2022-10-28T22:02:51.448Z,10.23
2022-10-28T22:05:19.081Z,10.18
2022-10-28T22:07:46.596Z,8.27
2022-10-28T22:10:14.169Z,9.63
2022-10-28T22:12:41.704Z,6.57
2022-10-28T22:15:09.358Z,9.65
2022-10-28T22:17:36.890Z,9.45
2022-10-28T22:20:07.390Z,9.18
2022-10-28T22:22:35.114Z,8.35
2022-10-28T22:25:04.885Z,7.53
2022-10-28T22:27:35.422Z,7.43
2022-10-28T22:30:02.975Z,8.68
2022-10-28T22:32:30.539Z,9.55
2022-10-28T22:34:58.084Z,10.50
2022-10-28T22:37:25.643Z,8.68
2022-10-28T22:39:53.163Z,11.45
2022-10-28T22:42:20.814Z,10.55
2022-10-28T22:44:48.382Z,8.77
2022-10-28T22:47:15.932Z,8.10
2022-10-28T22:49:43.476Z,10.95
2022-10-28T22:52:11.010Z,8.95
2022-10-28T22:54:38.539Z,6.93
2022-10-28T22:57:06.124Z,10.57
2022-10-28T22:59:33.637Z,7.40
2022-10-28T23:02:01.317Z,8.75
2022-10-28T23:04:28.965Z,6.78
2022-10-28T23:06:56.500Z,11.00
2022-10-28T23:09:24.040Z,8.95
2022-10-28T23:11:51.644Z,10.30
2022-10-28T23:14:19.195Z,9.73
2022-10-28T23:16:48.857Z,12.88
2022-10-28T23:19:16.432Z,9.48
2022-10-28T23:21:44.003Z,9.65
2022-10-28T23:24:11.692Z,13.38
2022-10-28T23:26:39.236Z,11.60
2022-10-28T23:29:06.821Z,11.60
2022-10-28T23:31:34.394Z,9.30
2022-10-28T23:34:02.019Z,8.15
2022-10-28T23:36:29.621Z,13.38
2022-10-28T23:38:57.630Z,10.18
2022-10-28T23:41:25.163Z,8.50
2022-10-28T23:43:52.754Z,9.73
2022-10-28T23:46:21.049Z,10.10
2022-10-28T23:48:48.650Z,13.73
2022-10-28T23:51:16.299Z,9.55
2022-10-28T23:53:43.836Z,11.23
2022-10-28T23:56:11.397Z,9.65
2022-10-28T23:58:38.946Z,11.50
